Time;durP1;ratioP1;P1;durP2;ratioP2;P2;SDS_P1;SDS_P2;PMS_P1;PMS_P2;Temp;Humidity;BMP_temperature;BMP_pressure;BME280_temperature;BME280_humidity;BME280_pressure;Samples;Min_cycle;Max_cycle;Signal;HPM_P1;HPM_P2
2023/10/04 00:00:27;;;;;;;12.00;3.15;;;12.50;99.90;;;;;;5056202;28;20656;-44
2023/10/04 00:02:54;;;;;;;7.72;2.47;;;12.50;99.90;;;;;;5054679;28;20518;-44
2023/10/04 00:05:22;;;;;;;10.05;2.75;;;12.50;99.90;;;;;;5057403;28;20040;-44
2023/10/04 00:07:50;;;;;;;8.20;3.08;;;12.50;99.90;;;;;;5060132;28;20068;-46
2023/10/04 00:10:17;;;;;;;9.32;2.72;;;12.50;99.90;;;;;;5056033;28;20052;-45
2023/10/04 00:12:44;;;;;;;10.95;2.95;;;12.50;99.90;;;;;;5059406;28;20058;-44
2023/10/04 00:15:12;;;;;;;6.95;2.33;;;12.50;99.90;;;;;;5059880;28;20044;-45
2023/10/04 00:17:42;;;;;;;7.47;2.50;;;12.50;99.90;;;;;;5060765;28;20074;-45
2023/10/04 00:20:17;;;;;;;8.80;2.88;;;12.40;99.90;;;;;;5057200;28;20041;-44
2023/10/04 00:22:46;;;;;;;8.82;3.40;;;12.40;99.90;;;;;;5056161;28;20651;-45
2023/10/04 00:25:23;;;;;;;11.00;2.53;;;12.30;99.90;;;;;;5061026;28;20063;-44
2023/10/04 00:27:50;;;;;;;6.28;2.72;;;12.30;99.90;;;;;;5056821;28;20116;-43
2023/10/04 00:30:18;;;;;;;7.30;2.80;;;12.30;99.90;;;;;;5061400;28;20072;-44
2023/10/04 00:32:46;;;;;;;5.50;2.58;;;12.20;99.90;;;;;;5064547;28;20127;-45
2023/10/04 00:35:19;;;;;;;7.20;2.53;;;12.20;99.90;;;;;;5058636;28;20048;-44
2023/10/04 00:37:48;;;;;;;5.00;2.10;;;12.20;99.90;;;;;;5060681;28;20486;-44
2023/10/04 00:40:21;;;;;;;8.63;2.03;;;12.10;99.90;;;;;;5063856;28;20136;-43
2023/10/04 00:42:47;;;;;;;7.72;2.20;;;12.10;99.90;;;;;;5059877;28;20051;-44
2023/10/04 00:45:13;;;;;;;4.50;2.00;;;12.10;99.90;;;;;;5064236;28;20063;-46
2023/10/04 00:47:44;;;;;;;4.60;1.95;;;12.10;99.90;;;;;;5060676;28;20041;-44
2023/10/04 00:50:16;;;;;;;6.60;2.10;;;12.10;99.90;;;;;;5059140;28;20132;-44
2023/10/04 00:52:51;;;;;;;4.95;1.98;;;12.00;99.90;;;;;;5064373;28;20052;-45
2023/10/04 00:55:19;;;;;;;5.03;2.10;;;12.00;99.90;;;;;;5062808;28;20064;-44
2023/10/04 00:57:48;;;;;;;8.57;2.22;;;12.00;99.90;;;;;;5062123;28;20049;-46
2023/10/04 01:00:14;;;;;;;8.38;2.40;;;11.90;99.90;;;;;;5064085;28;20045;-45
2023/10/04 01:02:41;;;;;;;6.03;2.10;;;11.90;99.90;;;;;;5060809;28;20060;-47
2023/10/04 01:05:07;;;;;;;5.65;2.05;;;11.80;99.90;;;;;;5065046;28;20363;-44
2023/10/04 01:07:35;;;;;;;6.28;2.22;;;11.80;99.90;;;;;;5060475;28;20051;-46
2023/10/04 01:10:01;;;;;;;7.07;2.13;;;11.90;99.90;;;;;;5059595;28;20033;-44
2023/10/04 01:12:26;;;;;;;6.68;1.70;;;11.90;99.90;;;;;;5062873;28;20046;-44
2023/10/04 01:14:53;;;;;;;5.72;2.03;;;11.90;99.90;;;;;;5064427;28;20049;-45
2023/10/04 01:17:20;;;;;;;8.70;2.30;;;11.90;99.90;;;;;;5059213;28;20040;-44
2023/10/04 01:19:45;;;;;;;6.50;2.38;;;11.90;99.90;;;;;;5064634;28;20105;-44
2023/10/04 01:22:11;;;;;;;4.95;1.98;;;11.80;99.90;;;;;;5063977;28;20471;-47
2023/10/04 01:24:41;;;;;;;7.80;2.15;;;11.80;99.90;;;;;;5059130;28;21409;-46
2023/10/04 01:27:08;;;;;;;9.77;2.38;;;11.90;99.90;;;;;;5064747;28;20048;-45
2023/10/04 01:29:34;;;;;;;10.27;2.38;;;11.80;99.90;;;;;;5058651;28;20455;-43
2023/10/04 01:31:59;;;;;;;7.88;2.30;;;11.80;99.90;;;;;;5059282;28;20057;-45
2023/10/04 01:34:25;;;;;;;8.15;2.25;;;11.80;99.90;;;;;;5061908;28;20048;-44
2023/10/04 01:36:51;;;;;;;9.70;2.63;;;11.80;99.90;;;;;;5057479;28;20120;-45
2023/10/04 01:39:18;;;;;;;6.70;2.38;;;11.70;99.90;;;;;;5057913;28;20170;-44
2023/10/04 01:41:44;;;;;;;9.15;3.03;;;11.80;99.90;;;;;;5063211;28;20071;-43
2023/10/04 01:44:10;;;;;;;7.38;2.42;;;11.80;99.90;;;;;;5059637;28;20466;-44
2023/10/04 01:46:37;;;;;;;7.95;2.22;;;11.80;99.90;;;;;;5061114;28;20424;-44
2023/10/04 01:49:05;;;;;;;9.60;2.38;;;11.70;99.90;;;;;;5056119;28;20058;-44
2023/10/04 01:51:31;;;;;;;9.52;2.30;;;11.70;99.90;;;;;;5056525;28;20131;-43
2023/10/04 01:53:58;;;;;;;10.98;2.67;;;11.70;99.90;;;;;;5060072;28;20124;-44
2023/10/04 01:56:24;;;;;;;7.05;2.38;;;11.70;99.90;;;;;;5060429;28;20509;-44
2023/10/04 01:58:51;;;;;;;10.38;2.60;;;11.70;99.90;;;;;;5058085;28;20041;-43
2023/10/04 02:01:17;;;;;;;9.55;2.30;;;11.70;99.90;;;;;;5061329;28;20110;-45
2023/10/04 02:03:43;;;;;;;11.25;2.58;;;11.60;99.90;;;;;;5060132;28;20041;-43
2023/10/04 02:06:09;;;;;;;7.95;2.13;;;11.70;99.90;;;;;;5059174;28;20061;-44
2023/10/04 02:08:35;;;;;;;7.63;2.22;;;11.70;99.90;;;;;;5061274;28;20346;-43
2023/10/04 02:11:03;;;;;;;7.38;2.28;;;11.60;99.90;;;;;;5056697;28;20183;-43
2023/10/04 02:13:29;;;;;;;8.00;2.70;;;11.60;99.90;;;;;;5064651;28;20047;-47
2023/10/04 02:15:55;;;;;;;8.93;3.03;;;11.60;99.90;;;;;;5061569;28;20045;-44
2023/10/04 02:18:21;;;;;;;9.82;2.65;;;11.60;99.90;;;;;;5060571;28;20067;-48
2023/10/04 02:20:53;;;;;;;8.40;2.45;;;11.60;99.90;;;;;;5061293;28;20102;-45
2023/10/04 02:23:19;;;;;;;11.13;3.10;;;11.60;99.90;;;;;;5060136;28;20051;-45
2023/10/04 02:25:45;;;;;;;8.73;2.83;;;11.60;99.90;;;;;;5056086;28;20124;-46
2023/10/04 02:28:11;;;;;;;12.18;2.38;;;11.60;99.90;;;;;;5059485;28;20048;-45
2023/10/04 02:30:40;;;;;;;10.45;2.40;;;11.60;99.90;;;;;;5053101;28;20163;-44
2023/10/04 02:33:13;;;;;;;10.07;2.90;;;11.60;99.90;;;;;;5054030;28;20036;-44
2023/10/04 02:35:48;;;;;;;11.02;2.67;;;11.50;99.90;;;;;;5061596;28;20053;-44
2023/10/04 02:38:26;;;;;;;9.23;3.05;;;11.60;99.90;;;;;;5050432;28;20510;-44
2023/10/04 02:40:52;;;;;;;9.38;2.58;;;11.50;99.90;;;;;;5061727;28;20036;-46
2023/10/04 02:43:28;;;;;;;9.73;3.13;;;11.50;99.90;;;;;;5058180;28;20451;-44
2023/10/04 02:45:54;;;;;;;7.28;2.65;;;11.50;99.90;;;;;;5055588;28;20045;-45
2023/10/04 02:48:20;;;;;;;10.45;3.17;;;11.50;99.90;;;;;;5057458;28;20045;-44
2023/10/04 02:50:47;;;;;;;9.77;3.10;;;11.50;99.90;;;;;;5059041;28;20065;-43
2023/10/04 02:53:16;;;;;;;10.02;3.42;;;11.40;99.90;;;;;;5057989;28;20064;-46
2023/10/04 02:55:43;;;;;;;11.00;3.03;;;11.50;99.90;;;;;;5063049;28;20436;-45
2023/10/04 02:58:12;;;;;;;10.77;2.75;;;11.40;99.90;;;;;;5064993;28;20616;-43
2023/10/04 03:00:43;;;;;;;9.48;2.72;;;11.40;99.90;;;;;;5058511;28;20044;-45
2023/10/04 03:03:08;;;;;;;8.63;2.65;;;11.40;99.90;;;;;;5052670;28;20548;-44
2023/10/04 03:05:35;;;;;;;10.73;3.13;;;11.30;99.90;;;;;;5059166;28;20032;-44
2023/10/04 03:08:06;;;;;;;8.32;2.33;;;11.40;99.90;;;;;;5060208;28;20478;-45
2023/10/04 03:10:36;;;;;;;10.20;2.95;;;11.50;99.90;;;;;;5061246;28;20052;-45
2023/10/04 03:13:11;;;;;;;9.00;3.25;;;11.40;99.90;;;;;;5054813;28;20542;-46
2023/10/04 03:15:42;;;;;;;10.30;3.38;;;11.40;99.90;;;;;;5055184;28;20087;-45
2023/10/04 03:18:13;;;;;;;15.68;3.00;;;11.40;99.90;;;;;;5059665;28;20063;-43
2023/10/04 03:20:54;;;;;;;8.57;3.00;;;11.40;99.90;;;;;;5059158;28;20075;-44
2023/10/04 03:23:23;;;;;;;11.50;3.00;;;11.40;99.90;;;;;;5060467;28;20055;-44
2023/10/04 03:25:53;;;;;;;12.40;3.15;;;11.40;99.90;;;;;;5057397;28;20514;-48
2023/10/04 03:28:33;;;;;;;9.50;3.03;;;;;;;;;;5058488;28;20505;-44
2023/10/04 03:31:01;;;;;;;8.15;2.97;;;11.30;99.90;;;;;;5058509;28;20124;-45
2023/10/04 03:33:27;;;;;;;9.05;3.30;;;11.20;99.90;;;;;;5055327;28;20742;-44
2023/10/04 03:35:53;;;;;;;8.88;2.72;;;11.20;99.90;;;;;;5057585;28;20044;-46
2023/10/04 03:38:20;;;;;;;11.63;2.90;;;11.20;99.90;;;;;;5052794;28;20445;-44
2023/10/04 03:40:45;;;;;;;10.77;3.00;;;11.20;99.90;;;;;;5056451;28;20049;-47
2023/10/04 03:43:12;;;;;;;11.73;3.30;;;11.20;99.90;;;;;;5058237;28;20397;-45
2023/10/04 03:45:39;;;;;;;9.93;2.92;;;11.20;99.90;;;;;;5056816;28;20086;-46
2023/10/04 03:48:15;;;;;;;14.35;3.15;;;11.20;99.90;;;;;;5056435;28;20060;-46
2023/10/04 03:50:51;;;;;;;12.68;3.08;;;11.20;99.90;;;;;;5060508;28;20041;-44
2023/10/04 03:53:21;;;;;;;9.90;2.85;;;11.20;99.90;;;;;;5056404;28;20380;-45
2023/10/04 03:55:47;;;;;;;7.45;2.58;;;11.20;99.90;;;;;;5056859;28;20128;-45
2023/10/04 03:58:15;;;;;;;8.63;3.35;;;11.20;99.90;;;;;;5063211;28;20127;-44
2023/10/04 04:00:41;;;;;;;;;;;11.20;99.90;;;;;;5057366;28;20080;-44
2023/10/04 04:03:08;;;;;;;10.60;3.00;;;11.10;99.90;;;;;;5063298;28;19944;-44
2023/10/04 04:05:38;;;;;;;8.82;2.80;;;11.20;99.90;;;;;;5062450;28;20045;-45
2023/10/04 04:08:05;;;;;;;12.23;2.95;;;11.20;99.90;;;;;;5060033;28;20048;-47
2023/10/04 04:10:31;;;;;;;10.02;3.28;;;11.10;99.90;;;;;;5059727;28;20044;-47
2023/10/04 04:12:57;;;;;;;10.40;3.28;;;11.20;99.90;;;;;;5062440;28;20090;-46
2023/10/04 04:15:23;;;;;;;9.55;2.88;;;11.20;99.90;;;;;;5061577;28;20459;-45
2023/10/04 04:17:50;;;;;;;9.35;3.42;;;11.20;99.90;;;;;;5061479;28;20147;-44
2023/10/04 04:20:16;;;;;;;11.90;3.40;;;11.20;99.90;;;;;;5064279;28;20407;-45
2023/10/04 04:22:46;;;;;;;7.70;2.60;;;11.20;99.90;;;;;;5061206;28;20449;-44
2023/10/04 04:25:15;;;;;;;8.07;3.08;;;11.30;99.90;;;;;;5063463;28;20785;-44
2023/10/04 04:27:44;;;;;;;12.02;3.08;;;11.30;99.90;;;;;;5064279;28;20109;-46
2023/10/04 04:30:16;;;;;;;7.75;2.72;;;11.40;99.90;;;;;;5061987;28;20055;-45
2023/10/04 04:32:55;;;;;;;9.43;2.80;;;11.50;99.90;;;;;;5057326;28;20037;-46
2023/10/04 04:35:24;;;;;;;10.25;3.08;;;11.50;99.90;;;;;;5059078;28;20048;-46
2023/10/04 04:37:55;;;;;;;12.32;3.72;;;11.50;99.90;;;;;;5063349;28;20036;-46
2023/10/04 04:40:30;;;;;;;11.68;3.15;;;11.60;99.90;;;;;;5060104;28;20482;-45
2023/10/04 04:43:18;;;;;;;11.20;2.95;;;11.60;99.90;;;;;;5058543;28;20083;-44
2023/10/04 04:45:51;;;;;;;7.82;3.28;;;11.50;99.90;;;;;;5060923;28;20152;-45
2023/10/04 04:48:29;;;;;;;11.15;3.42;;;11.50;99.90;;;;;;5056962;28;20037;-44
2023/10/04 04:50:58;;;;;;;10.98;3.40;;;11.60;99.90;;;;;;5055157;28;20502;-45
2023/10/04 04:53:29;;;;;;;10.93;3.00;;;11.50;99.90;;;;;;5054839;28;20439;-45
2023/10/04 04:55:55;;;;;;;10.45;2.67;;;11.50;99.90;;;;;;5055148;28;20372;-45
2023/10/04 04:58:26;;;;;;;10.93;3.30;;;11.60;99.90;;;;;;5061166;28;20055;-48
2023/10/04 05:00:55;;;;;;;11.23;3.10;;;11.60;99.90;;;;;;5058575;28;20059;-45
2023/10/04 05:03:26;;;;;;;10.93;3.38;;;11.60;99.90;;;;;;5061172;28;20056;-44
2023/10/04 05:05:52;;;;;;;10.88;3.20;;;11.70;99.90;;;;;;5058386;28;20040;-44
2023/10/04 05:08:18;;;;;;;9.75;3.30;;;11.70;99.90;;;;;;5070137;28;20360;-47
2023/10/04 05:10:44;;;;;;;9.57;3.20;;;11.70;99.90;;;;;;5068063;28;20344;-43
2023/10/04 05:13:13;;;;;;;7.80;3.03;;;11.70;99.90;;;;;;5065173;28;20119;-45
2023/10/04 05:15:45;;;;;;;11.48;3.08;;;11.70;99.90;;;;;;5064456;28;20045;-44
2023/10/04 05:18:15;;;;;;;11.60;3.05;;;11.60;99.90;;;;;;5061093;28;20387;-44
2023/10/04 05:20:49;;;;;;;9.25;3.30;;;11.50;99.90;;;;;;5064725;28;20052;-44
2023/10/04 05:23:16;;;;;;;8.48;3.00;;;11.50;99.90;;;;;;5065513;28;20045;-44
2023/10/04 05:25:41;;;;;;;7.00;2.80;;;11.50;99.90;;;;;;5059991;28;20045;-48
2023/10/04 05:28:14;;;;;;;9.13;2.97;;;11.50;99.90;;;;;;5065404;28;20044;-47
2023/10/04 05:30:42;;;;;;;12.10;3.28;;;11.40;99.90;;;;;;5064186;28;20111;-45
2023/10/04 05:33:08;;;;;;;;;;;11.40;99.90;;;;;;5062067;28;20134;-48
2023/10/04 05:35:35;;;;;;;9.90;3.47;;;11.30;99.90;;;;;;5063000;28;19920;-47
2023/10/04 05:38:08;;;;;;;16.00;3.40;;;11.30;99.90;;;;;;5062479;28;20124;-45
2023/10/04 05:40:43;;;;;;;10.50;3.35;;;11.30;99.90;;;;;;5060453;28;20063;-45
2023/10/04 05:43:09;;;;;;;7.32;3.08;;;11.30;99.90;;;;;;5067507;28;20033;-45
2023/10/04 05:45:36;;;;;;;11.85;3.42;;;11.30;99.90;;;;;;5061142;28;20060;-47
2023/10/04 05:48:04;;;;;;;9.30;3.30;;;11.30;99.90;;;;;;5080909;28;20037;-45
2023/10/04 05:50:32;;;;;;;10.63;3.05;;;11.30;99.90;;;;;;5060771;28;20083;-43
2023/10/04 05:53:05;;;;;;;10.00;3.40;;;11.30;99.90;;;;;;5063793;28;20049;-46
2023/10/04 05:55:34;;;;;;;13.45;3.65;;;11.30;99.90;;;;;;5061001;28;20045;-44
2023/10/04 05:58:00;;;;;;;11.50;3.35;;;11.40;99.90;;;;;;5060101;28;20060;-44
2023/10/04 06:00:40;;;;;;;7.70;3.03;;;11.40;99.90;;;;;;5060895;28;20049;-44
2023/10/04 06:03:11;;;;;;;9.63;3.30;;;11.40;99.90;;;;;;5062841;28;20545;-45
2023/10/04 06:05:38;;;;;;;14.02;3.75;;;11.50;99.90;;;;;;5065397;28;20036;-46
2023/10/04 06:08:06;;;;;;;10.05;3.22;;;11.60;99.90;;;;;;5069025;28;20097;-43
2023/10/04 06:10:33;;;;;;;11.65;3.28;;;11.60;99.90;;;;;;5063650;28;20041;-43
2023/10/04 06:12:59;;;;;;;10.13;3.17;;;11.70;99.90;;;;;;5067105;28;20032;-44
2023/10/04 06:15:25;;;;;;;9.05;3.42;;;11.70;99.90;;;;;;5064131;28;20059;-45
2023/10/04 06:17:52;;;;;;;11.48;3.17;;;11.80;99.90;;;;;;5066605;28;20480;-45
2023/10/04 06:20:28;;;;;;;10.25;3.35;;;11.90;99.90;;;;;;5064926;28;20033;-45
2023/10/04 06:22:56;;;;;;;11.82;3.70;;;12.00;99.90;;;;;;5064188;28;20136;-45
2023/10/04 06:25:23;;;;;;;16.63;3.45;;;12.00;99.90;;;;;;5063375;28;20124;-47
2023/10/04 06:27:50;;;;;;;11.43;3.10;;;12.00;99.90;;;;;;5065784;28;20136;-46
2023/10/04 06:30:21;;;;;;;14.98;3.50;;;12.10;99.90;;;;;;5062012;28;20128;-45
2023/10/04 06:32:57;;;;;;;14.90;3.50;;;12.10;99.90;;;;;;5059964;28;20083;-44
2023/10/04 06:35:24;;;;;;;9.30;3.33;;;12.10;99.90;;;;;;5070875;28;20090;-45
2023/10/04 06:37:54;;;;;;;12.25;3.92;;;12.20;99.90;;;;;;5069958;28;20043;-43
2023/10/04 06:40:21;;;;;;;12.73;3.47;;;12.30;99.90;;;;;;5069718;28;20044;-45
2023/10/04 06:42:49;;;;;;;10.55;3.30;;;12.50;99.90;;;;;;5060326;28;20442;-44
2023/10/04 06:45:16;;;;;;;;;;;12.80;99.90;;;;;;5069104;28;20049;-45
2023/10/04 06:47:45;;;;;;;8.98;3.08;;;13.10;99.90;;;;;;5059284;28;20259;-47
2023/10/04 06:50:18;;;;;;;11.23;3.90;;;13.10;99.90;;;;;;5057779;28;20104;-44
2023/10/04 06:52:45;;;;;;;10.20;3.35;;;13.20;99.90;;;;;;5059790;28;20052;-44
2023/10/04 06:55:11;;;;;;;11.35;3.83;;;13.10;99.90;;;;;;5059036;28;20033;-45
2023/10/04 06:57:41;;;;;;;7.07;2.78;;;13.10;99.90;;;;;;5064403;28;20505;-44
2023/10/04 07:00:14;;;;;;;9.10;3.40;;;13.10;99.90;;;;;;5060083;28;20052;-45
2023/10/04 07:02:53;;;;;;;7.90;3.03;;;13.10;99.90;;;;;;5061316;28;20049;-48
2023/10/04 07:05:22;;;;;;;10.52;3.22;;;13.20;99.90;;;;;;5061904;28;20598;-44
2023/10/04 07:07:49;;;;;;;9.75;3.08;;;13.40;99.90;;;;;;5066428;28;20087;-44
2023/10/04 07:10:20;;;;;;;9.30;3.60;;;13.60;99.90;;;;;;5068800;28;20032;-48
2023/10/04 07:12:51;;;;;;;10.23;3.05;;;13.60;99.90;;;;;;5064406;28;20041;-47
2023/10/04 07:15:18;;;;;;;10.88;3.38;;;13.70;99.90;;;;;;5064130;28;20363;-48
2023/10/04 07:17:44;;;;;;;7.75;3.13;;;13.70;99.90;;;;;;5057601;28;20051;-44
2023/10/04 07:20:15;;;;;;;10.90;3.22;;;13.80;99.90;;;;;;5062066;28;20120;-47
2023/10/04 07:22:58;;;;;;;11.07;3.63;;;13.90;99.90;;;;;;5064229;28;20036;-46
2023/10/04 07:25:26;;;;;;;14.63;3.97;;;14.00;99.90;;;;;;5061012;28;20036;-44
2023/10/04 07:27:53;;;;;;;9.73;3.10;;;14.10;99.90;;;;;;5070712;28;20055;-44
2023/10/04 07:30:19;;;;;;;11.52;3.40;;;14.20;99.90;;;;;;5051641;28;20057;-43
2023/10/04 07:32:46;;;;;;;9.02;3.25;;;14.20;99.90;;;;;;5050560;28;20102;-44
2023/10/04 07:35:23;;;;;;;9.85;3.53;;;14.20;99.90;;;;;;5051295;28;20055;-47
2023/10/04 07:37:49;;;;;;;8.00;3.08;;;14.20;99.90;;;;;;5068174;28;20470;-44
2023/10/04 07:40:16;;;;;;;10.13;3.10;;;14.20;99.90;;;;;;5071270;28;20076;-44
2023/10/04 07:42:45;;;;;;;9.98;3.08;;;14.20;99.90;;;;;;5062811;28;20072;-45
2023/10/04 07:45:12;;;;;;;9.55;3.13;;;14.30;99.90;;;;;;5067197;28;20049;-44
2023/10/04 07:47:43;;;;;;;10.57;3.38;;;14.30;99.90;;;;;;5071396;28;20059;-44
2023/10/04 07:50:11;;;;;;;7.47;3.38;;;14.40;99.90;;;;;;5070218;28;20067;-45
2023/10/04 07:52:41;;;;;;;13.60;3.95;;;14.40;99.90;;;;;;5057165;28;20055;-45
2023/10/04 07:55:17;;;;;;;8.43;3.15;;;14.50;99.90;;;;;;5059874;28;20033;-45
2023/10/04 07:57:53;;;;;;;10.40;4.03;;;14.60;99.90;;;;;;5066264;28;20131;-45
2023/10/04 08:00:20;;;;;;;10.55;3.50;;;14.60;99.90;;;;;;5057577;28;20040;-46
2023/10/04 08:02:50;;;;;;;11.30;3.33;;;14.70;99.90;;;;;;5057606;28;20029;-44
2023/10/04 08:05:27;;;;;;;15.57;3.45;;;14.80;99.90;;;;;;5042699;28;20041;-48
2023/10/04 08:07:54;;;;;;;9.95;3.80;;;14.90;99.90;;;;;;5060674;28;20033;-45
2023/10/04 08:10:25;;;;;;;10.68;3.22;;;15.00;99.90;;;;;;5056064;28;20101;-47
2023/10/04 08:13:01;;;;;;;9.95;3.75;;;15.00;99.90;;;;;;5063805;28;20458;-45
2023/10/04 08:15:29;;;;;;;7.78;2.88;;;15.10;99.90;;;;;;5058045;28;20043;-45
2023/10/04 08:17:56;;;;;;;7.47;3.20;;;15.20;99.90;;;;;;5062280;28;20098;-45
2023/10/04 08:20:24;;;;;;;12.85;3.60;;;15.30;99.90;;;;;;5061199;28;20497;-45
2023/10/04 08:22:50;;;;;;;10.93;4.00;;;15.20;99.90;;;;;;5061831;28;20036;-46
2023/10/04 08:25:21;;;;;;;9.95;3.40;;;15.30;99.90;;;;;;5057642;28;20427;-47
2023/10/04 08:27:47;;;;;;;11.90;3.90;;;15.30;99.90;;;;;;5062776;28;20072;-46
2023/10/04 08:30:15;;;;;;;11.90;3.45;;;15.30;99.90;;;;;;5056694;28;20037;-46
2023/10/04 08:32:41;;;;;;;11.00;3.45;;;15.50;99.90;;;;;;5056511;28;20063;-46
2023/10/04 08:35:09;;;;;;;11.30;3.25;;;15.60;99.90;;;;;;5058145;28;20454;-46
2023/10/04 08:37:34;;;;;;;9.45;3.47;;;15.70;99.90;;;;;;5057986;28;20124;-46
2023/10/04 08:40:01;;;;;;;12.57;3.80;;;15.70;99.90;;;;;;5062639;28;20413;-46
2023/10/04 08:42:28;;;;;;;10.10;3.42;;;15.80;99.90;;;;;;5061912;28;20088;-47
2023/10/04 08:44:54;;;;;;;10.00;3.38;;;;;;;;;;5056798;28;20045;-46
2023/10/04 08:47:22;;;;;;;11.48;3.58;;;15.90;99.90;;;;;;5063964;28;20045;-46
2023/10/04 08:49:55;;;;;;;11.10;3.55;;;;;;;;;;5062519;28;20394;-46
2023/10/04 08:52:35;;;;;;;13.05;4.68;;;16.00;99.90;;;;;;5063705;28;20048;-46
2023/10/04 08:55:07;;;;;;;11.18;3.45;;;16.00;99.90;;;;;;5066660;28;20037;-46
2023/10/04 08:57:39;;;;;;;10.63;3.80;;;16.10;99.90;;;;;;5065026;28;20111;-48
2023/10/04 09:00:14;;;;;;;12.23;3.42;;;16.20;99.90;;;;;;5063186;28;20060;-45
2023/10/04 09:02:46;;;;;;;8.70;3.60;;;16.10;99.90;;;;;;5066804;28;20094;-45
2023/10/04 09:05:15;;;;;;;10.10;3.33;;;16.10;99.90;;;;;;5066956;28;20039;-46
2023/10/04 09:07:43;;;;;;;9.13;3.17;;;16.20;99.90;;;;;;5066343;28;20509;-46
2023/10/04 09:10:15;;;;;;;9.98;3.70;;;16.20;99.90;;;;;;5066318;28;20422;-45
2023/10/04 09:12:43;;;;;;;9.18;3.50;;;16.20;99.90;;;;;;5068026;28;20463;-47
2023/10/04 09:15:13;;;;;;;10.60;3.72;;;16.30;99.90;;;;;;5063702;28;20048;-46
2023/10/04 09:17:56;;;;;;;8.63;3.33;;;16.50;99.90;;;;;;5057988;28;20041;-46
2023/10/04 09:20:31;;;;;;;10.60;4.15;;;16.60;99.90;;;;;;5056894;28;20467;-46
2023/10/04 09:23:00;;;;;;;8.43;3.20;;;16.60;99.90;;;;;;5067811;28;20113;-46
2023/10/04 09:25:40;;;;;;;8.05;3.50;;;;;;;;;;5065042;28;20041;-49
2023/10/04 09:28:09;;;;;;;9.68;3.85;;;;;;;;;;5059298;28;20057;-45
2023/10/04 09:30:38;;;;;;;9.55;3.83;;;16.70;99.90;;;;;;5058765;28;20044;-46
2023/10/04 09:33:09;;;;;;;11.88;3.85;;;16.80;99.90;;;;;;5064425;28;20471;-46
2023/10/04 09:35:43;;;;;;;9.15;3.67;;;;;;;;;;5062218;28;20072;-46
2023/10/04 09:38:16;;;;;;;11.95;3.70;;;;;;;;;;5066312;28;20095;-48
2023/10/04 09:40:55;;;;;;;9.98;3.53;;;17.00;99.90;;;;;;5059671;28;20045;-49
2023/10/04 09:43:37;;;;;;;10.07;3.97;;;17.20;99.90;;;;;;5056372;28;20051;-47
2023/10/04 09:46:07;;;;;;;10.95;3.40;;;17.20;99.90;;;;;;5060683;28;20041;-47
2023/10/04 09:48:46;;;;;;;8.60;3.58;;;17.30;99.90;;;;;;5058270;28;20053;-48
2023/10/04 09:51:12;;;;;;;9.77;4.00;;;17.30;99.90;;;;;;5056315;28;20044;-46
2023/10/04 09:53:41;;;;;;;12.32;4.65;;;17.40;99.90;;;;;;5061236;28;20049;-48
2023/10/04 09:56:11;;;;;;;10.05;4.22;;;17.40;99.90;;;;;;5065344;28;20041;-46
2023/10/04 09:58:42;;;;;;;9.95;3.30;;;17.50;99.90;;;;;;5060712;28;20063;-46
2023/10/04 10:01:11;;;;;;;11.80;3.50;;;17.50;99.90;;;;;;5063901;28;20041;-48
2023/10/04 10:04:07;;;;;;;11.57;3.72;;;17.50;99.90;;;;;;5063428;28;20105;-46
2023/10/04 10:06:52;;;;;;;13.27;3.80;;;17.30;99.90;;;;;;5063051;28;20127;-45
2023/10/04 10:09:20;;;;;;;11.70;3.70;;;17.60;99.90;;;;;;5059368;28;20037;-47
2023/10/04 10:11:52;;;;;;;9.98;3.45;;;17.30;99.90;;;;;;5059089;28;20044;-47
2023/10/04 10:14:21;;;;;;;10.68;3.80;;;17.60;99.90;;;;;;5069092;28;20053;-49
2023/10/04 10:16:54;;;;;;;9.35;3.70;;;17.40;99.90;;;;;;5064373;28;20077;-46
2023/10/04 10:19:27;;;;;;;11.02;3.97;;;17.20;99.90;;;;;;5066249;28;20426;-46
2023/10/04 10:22:03;;;;;;;10.20;3.55;;;17.40;99.90;;;;;;5062506;28;20056;-46
2023/10/04 10:24:29;;;;;;;9.82;3.80;;;17.50;99.90;;;;;;5055662;28;20044;-47
2023/10/04 10:27:08;;;;;;;13.15;4.22;;;17.50;99.90;;;;;;5058207;28;20093;-46
2023/10/04 10:29:36;;;;;;;9.27;3.38;;;17.80;99.90;;;;;;5065042;28;20048;-46
2023/10/04 10:32:04;;;;;;;;;;;17.90;99.90;;;;;;5058089;28;20040;-47
2023/10/04 10:34:30;;;;;;;9.48;3.60;;;18.10;99.90;;;;;;5083531;28;19966;-46
2023/10/04 10:37:29;;;;;;;8.75;3.55;;;18.10;99.90;;;;;;5064161;28;20045;-50
2023/10/04 10:39:56;;;;;;;11.73;4.20;;;18.20;99.90;;;;;;5045892;28;20211;-47
2023/10/04 10:42:23;;;;;;;11.80;3.78;;;18.30;99.90;;;;;;5061009;28;20041;-47
2023/10/04 10:44:50;;;;;;;11.30;4.10;;;18.30;99.90;;;;;;5059470;28;20045;-46
2023/10/04 10:47:25;;;;;;;10.27;4.15;;;18.50;99.90;;;;;;5066383;28;20322;-47
2023/10/04 10:49:52;;;;;;;11.45;4.00;;;18.60;99.90;;;;;;5063672;28;20457;-47
2023/10/04 10:52:34;;;;;;;10.68;3.70;;;18.70;99.90;;;;;;5061756;28;20045;-48
2023/10/04 10:55:18;;;;;;;7.78;3.70;;;18.70;99.90;;;;;;5057331;28;20037;-48
2023/10/04 10:57:47;;;;;;;14.70;4.53;;;18.70;99.90;;;;;;5066868;28;20040;-46
2023/10/04 11:02:39;;;;;;;9.63;4.20;;;18.70;99.90;;;;;;5060262;28;20040;-46
2023/10/04 11:05:06;;;;;;;11.63;4.30;;;18.80;99.90;;;;;;5059766;28;20101;-47
2023/10/04 11:07:33;;;;;;;11.00;4.33;;;18.70;99.90;;;;;;5055674;28;20379;-46
2023/10/04 11:09:59;;;;;;;11.23;4.70;;;18.60;99.90;;;;;;5056712;28;20055;-47
2023/10/04 11:12:25;;;;;;;14.88;4.22;;;18.60;99.90;;;;;;5055121;28;20044;-47
2023/10/04 11:14:52;;;;;;;12.10;4.32;;;18.60;99.90;;;;;;5060545;28;20060;-46
2023/10/04 11:17:20;;;;;;;10.60;3.60;;;18.60;99.90;;;;;;5056345;28;20078;-48
2023/10/04 11:19:46;;;;;;;10.10;4.13;;;18.60;99.90;;;;;;5064099;28;20220;-47
2023/10/04 11:22:14;;;;;;;11.35;4.25;;;18.50;99.90;;;;;;5056803;28;20371;-50
2023/10/04 11:24:40;;;;;;;10.45;4.22;;;18.30;99.90;;;;;;5057296;28;20045;-46
2023/10/04 11:27:10;;;;;;;9.70;3.97;;;18.20;99.90;;;;;;5064417;28;20087;-46
2023/10/04 11:29:36;;;;;;;9.95;4.20;;;18.10;99.90;;;;;;5056463;28;20487;-49
2023/10/04 11:32:05;;;;;;;10.93;4.03;;;18.20;99.90;;;;;;5056054;28;20482;-46
2023/10/04 11:34:37;;;;;;;10.90;4.10;;;18.20;99.90;;;;;;5062445;28;20186;-45
2023/10/04 11:37:04;;;;;;;9.93;4.20;;;18.20;99.90;;;;;;5064206;28;20064;-46
2023/10/04 11:39:34;;;;;;;11.45;4.30;;;18.30;99.90;;;;;;5060550;28;20079;-46
2023/10/04 11:42:02;;;;;;;10.13;4.10;;;18.30;99.90;;;;;;5061903;28;20098;-46
2023/10/04 11:44:30;;;;;;;9.63;3.95;;;18.40;99.90;;;;;;5053629;28;20514;-45
2023/10/04 11:47:01;;;;;;;11.45;4.10;;;18.40;99.90;;;;;;5058307;28;20044;-46
2023/10/04 11:49:28;;;;;;;10.77;4.20;;;18.30;99.90;;;;;;5059860;28;20041;-47
2023/10/04 11:51:58;;;;;;;8.65;4.10;;;18.30;99.90;;;;;;5060165;28;20094;-47
2023/10/04 11:54:26;;;;;;;12.13;4.30;;;18.30;99.90;;;;;;5055715;28;20041;-47
2023/10/04 11:56:52;;;;;;;12.60;4.45;;;18.30;99.90;;;;;;5062007;28;20037;-47
2023/10/04 11:59:29;;;;;;;10.95;3.90;;;18.30;99.90;;;;;;5059806;28;20039;-49
2023/10/04 12:01:55;;;;;;;10.68;4.28;;;18.20;99.90;;;;;;5061359;28;20045;-50
2023/10/04 12:04:21;;;;;;;8.07;3.90;;;18.10;99.90;;;;;;5062820;28;20399;-48
2023/10/04 12:07:09;;;;;;;13.32;4.38;;;17.90;99.90;;;;;;5059012;28;20040;-49
2023/10/04 12:09:35;;;;;;;15.68;4.55;;;17.80;99.90;;;;;;5057375;28;20075;-46
2023/10/04 12:12:16;;;;;;;10.68;3.97;;;17.90;99.90;;;;;;5063208;28;20076;-47
2023/10/04 12:14:42;;;;;;;10.60;3.92;;;17.80;99.90;;;;;;5066136;28;20049;-48
2023/10/04 12:17:08;;;;;;;7.93;4.18;;;17.80;99.90;;;;;;5057207;28;20094;-46
2023/10/04 12:19:35;;;;;;;9.50;4.32;;;17.90;99.90;;;;;;5066384;28;20045;-46
2023/10/04 12:22:08;;;;;;;9.98;3.67;;;17.90;99.90;;;;;;5059417;28;20043;-47
2023/10/04 12:24:44;;;;;;;10.27;3.95;;;18.00;99.90;;;;;;5061035;28;20044;-46
2023/10/04 12:27:14;;;;;;;10.65;3.85;;;18.10;99.90;;;;;;5070005;28;20041;-50
2023/10/04 12:29:40;;;;;;;9.65;3.17;;;18.20;99.90;;;;;;5062123;28;20550;-47
2023/10/04 12:32:07;;;;;;;9.85;3.58;;;18.40;99.90;;;;;;5064851;28;20119;-50
2023/10/04 12:34:33;;;;;;;10.32;4.07;;;;;;;;;;5062033;28;20052;-46
2023/10/04 12:37:00;;;;;;;9.38;3.67;;;18.90;99.90;;;;;;5064691;28;20036;-47
2023/10/04 12:39:26;;;;;;;12.35;4.28;;;18.70;99.90;;;;;;5062238;28;20141;-47
2023/10/04 12:41:52;;;;;;;10.80;3.72;;;18.70;99.90;;;;;;5066421;28;20040;-50
2023/10/04 12:44:19;;;;;;;9.70;4.07;;;18.80;99.90;;;;;;5069819;28;20065;-46
2023/10/04 12:46:45;;;;;;;9.32;3.92;;;18.90;99.90;;;;;;5067042;28;20032;-46
2023/10/04 12:49:11;;;;;;;11.18;4.15;;;18.90;99.90;;;;;;5062000;28;20033;-48
2023/10/04 12:51:37;;;;;;;8.05;3.75;;;18.80;99.90;;;;;;5061877;28;20055;-46
2023/10/04 12:54:03;;;;;;;9.13;4.20;;;18.70;99.90;;;;;;5062283;28;20049;-47
2023/10/04 12:56:29;;;;;;;12.52;4.10;;;18.70;99.90;;;;;;5059083;28;20063;-46
2023/10/04 12:58:55;;;;;;;10.73;4.45;;;18.60;99.90;;;;;;5054138;28;20040;-45